sensor_id;sensor_type;location;lat;lon;timestamp;pressure;altitude;pressure_sealevel;temperature
29701;BMP280;57917;51.380;-0.176;2023-05-19T00:04:22;102408.81;;;13.29
29701;BMP280;57917;51.380;-0.176;2023-05-19T00:10:11;102418.19;;;12.89
29701;BMP280;57917;51.380;-0.176;2023-05-19T00:15:58;102412.53;;;13.02
29701;BMP280;57917;51.380;-0.176;2023-05-19T00:21:47;102418.63;;;13.02
29701;BMP280;57917;51.380;-0.176;2023-05-19T00:27:34;102424.41;;;12.72
29701;BMP280;57917;51.380;-0.176;2023-05-19T00:33:21;102430.00;;;12.76
29701;BMP280;57917;51.380;-0.176;2023-05-19T00:39:10;102429.81;;;12.82
29701;BMP280;57917;51.380;-0.176;2023-05-19T00:44:57;102426.88;;;13.01
29701;BMP280;57917;51.380;-0.176;2023-05-19T00:50:49;102424.38;;;13.16
29701;BMP280;57917;51.380;-0.176;2023-05-19T00:56:38;102419.97;;;12.83
29701;BMP280;57917;51.380;-0.176;2023-05-19T01:02:28;102424.66;;;12.93
29701;BMP280;57917;51.380;-0.176;2023-05-19T01:08:17;102420.38;;;13.13
29701;BMP280;57917;51.380;-0.176;2023-05-19T01:14:10;102413.94;;;13.09
29701;BMP280;57917;51.380;-0.176;2023-05-19T01:20:11;102422.41;;;13.06
29701;BMP280;57917;51.380;-0.176;2023-05-19T01:32:09;102422.56;;;12.95
29701;BMP280;57917;51.380;-0.176;2023-05-19T01:38:00;102412.03;;;13.05
29701;BMP280;57917;51.380;-0.176;2023-05-19T01:43:49;102418.03;;;12.73
29701;BMP280;57917;51.380;-0.176;2023-05-19T01:49:36;102417.59;;;12.60
29701;BMP280;57917;51.380;-0.176;2023-05-19T01:55:25;102423.63;;;12.77
29701;BMP280;57917;51.380;-0.176;2023-05-19T02:01:24;102395.03;;;12.41
29701;BMP280;57917;51.380;-0.176;2023-05-19T02:13:09;102397.59;;;12.03
29701;BMP280;57917;51.380;-0.176;2023-05-19T02:19:02;102410.59;;;11.99
29701;BMP280;57917;51.380;-0.176;2023-05-19T02:24:52;102417.00;;;11.87
29701;BMP280;57917;51.380;-0.176;2023-05-19T02:30:42;102412.16;;;12.00
29701;BMP280;57917;51.380;-0.176;2023-05-19T02:36:32;102415.72;;;11.89
29701;BMP280;57917;51.380;-0.176;2023-05-19T02:42:22;102400.97;;;11.82
29701;BMP280;57917;51.380;-0.176;2023-05-19T02:48:10;102397.16;;;12.06
29701;BMP280;57917;51.380;-0.176;2023-05-19T02:53:59;102404.94;;;12.12
29701;BMP280;57917;51.380;-0.176;2023-05-19T02:59:47;102402.44;;;12.22
29701;BMP280;57917;51.380;-0.176;2023-05-19T03:05:36;102409.44;;;11.95
29701;BMP280;57917;51.380;-0.176;2023-05-19T03:11:23;102410.81;;;12.31
29701;BMP280;57917;51.380;-0.176;2023-05-19T03:17:10;102401.69;;;12.27
29701;BMP280;57917;51.380;-0.176;2023-05-19T03:22:57;102389.06;;;12.17
29701;BMP280;57917;51.380;-0.176;2023-05-19T03:28:44;102404.13;;;11.95
29701;BMP280;57917;51.380;-0.176;2023-05-19T03:34:32;102397.78;;;11.96
29701;BMP280;57917;51.380;-0.176;2023-05-19T03:40:19;102394.53;;;11.94
29701;BMP280;57917;51.380;-0.176;2023-05-19T03:46:08;102387.00;;;11.70
29701;BMP280;57917;51.380;-0.176;2023-05-19T03:52:03;102396.06;;;11.57
29701;BMP280;57917;51.380;-0.176;2023-05-19T03:58:02;102400.72;;;11.67
29701;BMP280;57917;51.380;-0.176;2023-05-19T04:03:49;102408.38;;;11.63
29701;BMP280;57917;51.380;-0.176;2023-05-19T04:09:36;102408.84;;;11.60
29701;BMP280;57917;51.380;-0.176;2023-05-19T04:15:27;102404.97;;;11.51
29701;BMP280;57917;51.380;-0.176;2023-05-19T04:21:14;102403.53;;;11.60
29701;BMP280;57917;51.380;-0.176;2023-05-19T04:27:01;102408.53;;;11.73
29701;BMP280;57917;51.380;-0.176;2023-05-19T04:32:50;102415.94;;;11.71
29701;BMP280;57917;51.380;-0.176;2023-05-19T04:38:39;102425.59;;;11.77
29701;BMP280;57917;51.380;-0.176;2023-05-19T04:44:28;102418.97;;;11.80
29701;BMP280;57917;51.380;-0.176;2023-05-19T04:50:17;102424.13;;;11.70
29701;BMP280;57917;51.380;-0.176;2023-05-19T04:56:08;102427.75;;;11.64
29701;BMP280;57917;51.380;-0.176;2023-05-19T05:01:58;102425.25;;;11.74
29701;BMP280;57917;51.380;-0.176;2023-05-19T05:07:48;102428.06;;;11.67
29701;BMP280;57917;51.380;-0.176;2023-05-19T05:13:36;102412.00;;;11.90
29701;BMP280;57917;51.380;-0.176;2023-05-19T05:19:23;102414.00;;;11.83
29701;BMP280;57917;51.380;-0.176;2023-05-19T05:25:14;102419.13;;;11.57
29701;BMP280;57917;51.380;-0.176;2023-05-19T05:31:02;102409.66;;;11.94
29701;BMP280;57917;51.380;-0.176;2023-05-19T05:36:50;102415.88;;;12.16
29701;BMP280;57917;51.380;-0.176;2023-05-19T05:42:39;102400.41;;;11.63
29701;BMP280;57917;51.380;-0.176;2023-05-19T05:48:26;102398.25;;;11.93
29701;BMP280;57917;51.380;-0.176;2023-05-19T05:54:16;102392.47;;;11.96
29701;BMP280;57917;51.380;-0.176;2023-05-19T06:00:10;102387.84;;;12.08
29701;BMP280;57917;51.380;-0.176;2023-05-19T06:06:10;102385.91;;;12.37
29701;BMP280;57917;51.380;-0.176;2023-05-19T06:11:58;102399.50;;;12.78
29701;BMP280;57917;51.380;-0.176;2023-05-19T06:17:49;102381.31;;;13.19
29701;BMP280;57917;51.380;-0.176;2023-05-19T06:23:39;102375.06;;;13.08
29701;BMP280;57917;51.380;-0.176;2023-05-19T06:29:30;102383.94;;;13.14
29701;BMP280;57917;51.380;-0.176;2023-05-19T06:35:21;102381.28;;;13.14
29701;BMP280;57917;51.380;-0.176;2023-05-19T06:41:12;102388.09;;;12.83
29701;BMP280;57917;51.380;-0.176;2023-05-19T06:47:00;102376.25;;;12.96
29701;BMP280;57917;51.380;-0.176;2023-05-19T06:52:47;102380.38;;;12.82
29701;BMP280;57917;51.380;-0.176;2023-05-19T06:58:37;102390.66;;;12.95
29701;BMP280;57917;51.380;-0.176;2023-05-19T07:04:28;102390.94;;;13.25
29701;BMP280;57917;51.380;-0.176;2023-05-19T07:10:18;102387.97;;;12.73
29701;BMP280;57917;51.380;-0.176;2023-05-19T07:16:09;102403.44;;;12.76
29701;BMP280;57917;51.380;-0.176;2023-05-19T07:21:58;102415.59;;;12.94
29701;BMP280;57917;51.380;-0.176;2023-05-19T07:27:45;102409.78;;;13.45
29701;BMP280;57917;51.380;-0.176;2023-05-19T07:33:34;102408.84;;;13.61
29701;BMP280;57917;51.380;-0.176;2023-05-19T07:39:24;102415.78;;;13.93
29701;BMP280;57917;51.380;-0.176;2023-05-19T07:45:15;102411.88;;;14.06
29701;BMP280;57917;51.380;-0.176;2023-05-19T07:51:04;102424.06;;;13.97
29701;BMP280;57917;51.380;-0.176;2023-05-19T07:56:56;102422.91;;;14.24
29701;BMP280;57917;51.380;-0.176;2023-05-19T08:02:47;102426.75;;;14.38
29701;BMP280;57917;51.380;-0.176;2023-05-19T08:08:37;102433.13;;;14.99
29701;BMP280;57917;51.380;-0.176;2023-05-19T08:14:25;102401.44;;;15.58
29701;BMP280;57917;51.380;-0.176;2023-05-19T08:20:16;102410.78;;;15.70
29701;BMP280;57917;51.380;-0.176;2023-05-19T08:26:03;102420.13;;;15.38
29701;BMP280;57917;51.380;-0.176;2023-05-19T08:31:52;102402.81;;;15.50
29701;BMP280;57917;51.380;-0.176;2023-05-19T08:37:46;102413.47;;;15.55
29701;BMP280;57917;51.380;-0.176;2023-05-19T08:44:01;102410.78;;;15.25
29701;BMP280;57917;51.380;-0.176;2023-05-19T08:50:05;102409.72;;;15.66
29701;BMP280;57917;51.380;-0.176;2023-05-19T08:56:10;102425.03;;;14.79
29701;BMP280;57917;51.380;-0.176;2023-05-19T09:02:01;102438.69;;;14.88
29701;BMP280;57917;51.380;-0.176;2023-05-19T09:08:17;102443.03;;;15.19
29701;BMP280;57917;51.380;-0.176;2023-05-19T09:14:04;102443.34;;;15.37
29701;BMP280;57917;51.380;-0.176;2023-05-19T09:20:04;102438.00;;;15.37
29701;BMP280;57917;51.380;-0.176;2023-05-19T09:26:04;102419.88;;;15.54
29701;BMP280;57917;51.380;-0.176;2023-05-19T09:31:58;102406.25;;;15.71
29701;BMP280;57917;51.380;-0.176;2023-05-19T09:37:59;102399.06;;;15.71
29701;BMP280;57917;51.380;-0.176;2023-05-19T09:43:55;102416.91;;;15.41
29701;BMP280;57917;51.380;-0.176;2023-05-19T09:49:46;102401.72;;;15.71
29701;BMP280;57917;51.380;-0.176;2023-05-19T09:55:41;102398.22;;;15.86
29701;BMP280;57917;51.380;-0.176;2023-05-19T10:01:30;102391.03;;;15.81
29701;BMP280;57917;51.380;-0.176;2023-05-19T10:07:22;102392.31;;;16.09
29701;BMP280;57917;51.380;-0.176;2023-05-19T10:13:31;102410.22;;;16.03
29701;BMP280;57917;51.380;-0.176;2023-05-19T10:19:42;102399.59;;;15.38
29701;BMP280;57917;51.380;-0.176;2023-05-19T10:25:36;102402.81;;;15.65
29701;BMP280;57917;51.380;-0.176;2023-05-19T10:31:24;102405.97;;;15.62
29701;BMP280;57917;51.380;-0.176;2023-05-19T10:37:18;102411.25;;;16.12
29701;BMP280;57917;51.380;-0.176;2023-05-19T10:43:34;102406.00;;;15.57
29701;BMP280;57917;51.380;-0.176;2023-05-19T10:49:23;102405.94;;;16.71
29701;BMP280;57917;51.380;-0.176;2023-05-19T10:55:52;102388.06;;;17.67
29701;BMP280;57917;51.380;-0.176;2023-05-19T11:01:41;102377.88;;;17.69
29701;BMP280;57917;51.380;-0.176;2023-05-19T11:07:28;102362.19;;;18.05
29701;BMP280;57917;51.380;-0.176;2023-05-19T11:13:26;102368.06;;;18.07
29701;BMP280;57917;51.380;-0.176;2023-05-19T11:20:21;102372.81;;;17.91
29701;BMP280;57917;51.380;-0.176;2023-05-19T11:26:53;102377.66;;;17.89
29701;BMP280;57917;51.380;-0.176;2023-05-19T11:33:11;102361.97;;;18.25
29701;BMP280;57917;51.380;-0.176;2023-05-19T11:39:10;102354.53;;;18.17
29701;BMP280;57917;51.380;-0.176;2023-05-19T11:45:05;102347.28;;;18.54
29701;BMP280;57917;51.380;-0.176;2023-05-19T11:50:59;102351.06;;;18.35
29701;BMP280;57917;51.380;-0.176;2023-05-19T11:56:49;102344.06;;;18.57
29701;BMP280;57917;51.380;-0.176;2023-05-19T12:02:40;102333.53;;;18.24
29701;BMP280;57917;51.380;-0.176;2023-05-19T12:08:36;102325.06;;;18.17
29701;BMP280;57917;51.380;-0.176;2023-05-19T12:14:25;102319.69;;;18.35
29701;BMP280;57917;51.380;-0.176;2023-05-19T12:20:15;102319.94;;;18.39
29701;BMP280;57917;51.380;-0.176;2023-05-19T12:26:06;102320.00;;;17.45
29701;BMP280;57917;51.380;-0.176;2023-05-19T12:31:55;102310.56;;;17.24
29701;BMP280;57917;51.380;-0.176;2023-05-19T12:37:47;102326.50;;;17.39
29701;BMP280;57917;51.380;-0.176;2023-05-19T12:43:34;102335.53;;;17.71
29701;BMP280;57917;51.380;-0.176;2023-05-19T12:49:24;102322.16;;;17.43
29701;BMP280;57917;51.380;-0.176;2023-05-19T12:55:11;102320.72;;;17.22
29701;BMP280;57917;51.380;-0.176;2023-05-19T13:01:15;102321.97;;;17.06
29701;BMP280;57917;51.380;-0.176;2023-05-19T13:07:09;102316.91;;;17.33
29701;BMP280;57917;51.380;-0.176;2023-05-19T13:13:46;102321.47;;;17.56
29701;BMP280;57917;51.380;-0.176;2023-05-19T13:19:36;102299.25;;;17.79
29701;BMP280;57917;51.380;-0.176;2023-05-19T13:25:26;102290.47;;;17.97
29701;BMP280;57917;51.380;-0.176;2023-05-19T13:31:17;102299.59;;;17.96
29701;BMP280;57917;51.380;-0.176;2023-05-19T13:37:17;102292.22;;;17.88
29701;BMP280;57917;51.380;-0.176;2023-05-19T13:43:14;102282.63;;;17.82
29701;BMP280;57917;51.380;-0.176;2023-05-19T13:49:07;102281.34;;;18.35
29701;BMP280;57917;51.380;-0.176;2023-05-19T13:55:50;102274.63;;;18.19
29701;BMP280;57917;51.380;-0.176;2023-05-19T14:01:56;102266.28;;;18.39
29701;BMP280;57917;51.380;-0.176;2023-05-19T14:07:57;102275.00;;;18.63
29701;BMP280;57917;51.380;-0.176;2023-05-19T14:13:52;102286.28;;;18.28
29701;BMP280;57917;51.380;-0.176;2023-05-19T14:20:13;102283.44;;;18.38
29701;BMP280;57917;51.380;-0.176;2023-05-19T14:26:22;102275.34;;;18.24
29701;BMP280;57917;51.380;-0.176;2023-05-19T14:32:21;102266.22;;;18.44
29701;BMP280;57917;51.380;-0.176;2023-05-19T14:38:41;102268.44;;;18.55
29701;BMP280;57917;51.380;-0.176;2023-05-19T14:44:46;102254.91;;;18.47
29701;BMP280;57917;51.380;-0.176;2023-05-19T14:50:59;102251.75;;;18.40
29701;BMP280;57917;51.380;-0.176;2023-05-19T14:57:22;102246.59;;;18.30
29701;BMP280;57917;51.380;-0.176;2023-05-19T15:03:16;102247.81;;;18.37
29701;BMP280;57917;51.380;-0.176;2023-05-19T15:09:26;102231.19;;;18.54
29701;BMP280;57917;51.380;-0.176;2023-05-19T15:15:14;102211.84;;;18.38
29701;BMP280;57917;51.380;-0.176;2023-05-19T15:21:03;102222.34;;;18.35
29701;BMP280;57917;51.380;-0.176;2023-05-19T15:26:51;102214.84;;;18.18
29701;BMP280;57917;51.380;-0.176;2023-05-19T15:32:39;102222.91;;;18.18
29701;BMP280;57917;51.380;-0.176;2023-05-19T15:38:35;102214.63;;;18.33
29701;BMP280;57917;51.380;-0.176;2023-05-19T15:44:22;102207.50;;;18.75
29701;BMP280;57917;51.380;-0.176;2023-05-19T15:50:17;102204.66;;;18.52
29701;BMP280;57917;51.380;-0.176;2023-05-19T15:56:06;102191.75;;;18.68
29701;BMP280;57917;51.380;-0.176;2023-05-19T16:01:55;102188.91;;;18.78
29701;BMP280;57917;51.380;-0.176;2023-05-19T16:07:45;102179.97;;;18.96
29701;BMP280;57917;51.380;-0.176;2023-05-19T16:13:37;102178.19;;;19.05
29701;BMP280;57917;51.380;-0.176;2023-05-19T16:19:28;102207.78;;;19.54
29701;BMP280;57917;51.380;-0.176;2023-05-19T16:25:19;102207.03;;;19.13
29701;BMP280;57917;51.380;-0.176;2023-05-19T16:31:15;102212.84;;;18.42
29701;BMP280;57917;51.380;-0.176;2023-05-19T16:37:08;102209.34;;;18.10
29701;BMP280;57917;51.380;-0.176;2023-05-19T16:42:56;102198.78;;;18.00
29701;BMP280;57917;51.380;-0.176;2023-05-19T16:48:49;102196.91;;;18.00
29701;BMP280;57917;51.380;-0.176;2023-05-19T16:54:36;102224.06;;;17.94
29701;BMP280;57917;51.380;-0.176;2023-05-19T17:00:25;102214.72;;;18.10
29701;BMP280;57917;51.380;-0.176;2023-05-19T17:06:16;102220.22;;;18.00
29701;BMP280;57917;51.380;-0.176;2023-05-19T17:12:05;102218.44;;;17.72
29701;BMP280;57917;51.380;-0.176;2023-05-19T17:17:55;102233.38;;;17.78
29701;BMP280;57917;51.380;-0.176;2023-05-19T17:23:42;102229.47;;;17.89
29701;BMP280;57917;51.380;-0.176;2023-05-19T17:29:30;102222.09;;;17.81
29701;BMP280;57917;51.380;-0.176;2023-05-19T17:35:22;102235.91;;;17.46
29701;BMP280;57917;51.380;-0.176;2023-05-19T17:41:14;102238.09;;;17.44
29701;BMP280;57917;51.380;-0.176;2023-05-19T17:47:01;102249.28;;;17.46
29701;BMP280;57917;51.380;-0.176;2023-05-19T17:52:51;102242.06;;;17.23
29701;BMP280;57917;51.380;-0.176;2023-05-19T17:58:48;102239.41;;;17.18
29701;BMP280;57917;51.380;-0.176;2023-05-19T18:04:42;102254.69;;;17.17
29701;BMP280;57917;51.380;-0.176;2023-05-19T18:10:42;102255.06;;;17.06
29701;BMP280;57917;51.380;-0.176;2023-05-19T18:16:39;102265.78;;;17.06
29701;BMP280;57917;51.380;-0.176;2023-05-19T18:22:32;102269.47;;;17.10
29701;BMP280;57917;51.380;-0.176;2023-05-19T18:28:24;102270.97;;;16.59
29701;BMP280;57917;51.380;-0.176;2023-05-19T18:34:22;102286.13;;;16.29
29701;BMP280;57917;51.380;-0.176;2023-05-19T18:40:24;102284.91;;;16.56
29701;BMP280;57917;51.380;-0.176;2023-05-19T18:46:18;102281.28;;;16.31
29701;BMP280;57917;51.380;-0.176;2023-05-19T18:52:06;102295.47;;;16.32
29701;BMP280;57917;51.380;-0.176;2023-05-19T18:57:55;102292.91;;;16.07
29701;BMP280;57917;51.380;-0.176;2023-05-19T19:03:46;102304.50;;;15.77
29701;BMP280;57917;51.380;-0.176;2023-05-19T19:10:10;102302.94;;;15.66
29701;BMP280;57917;51.380;-0.176;2023-05-19T19:16:07;102313.88;;;15.65
29701;BMP280;57917;51.380;-0.176;2023-05-19T19:22:14;102321.09;;;15.54
29701;BMP280;57917;51.380;-0.176;2023-05-19T19:28:05;102334.97;;;15.46
29701;BMP280;57917;51.380;-0.176;2023-05-19T19:33:55;102333.66;;;15.39
29701;BMP280;57917;51.380;-0.176;2023-05-19T19:39:46;102335.53;;;15.13
29701;BMP280;57917;51.380;-0.176;2023-05-19T19:45:40;102330.72;;;15.00
29701;BMP280;57917;51.380;-0.176;2023-05-19T19:51:43;102342.41;;;14.74
29701;BMP280;57917;51.380;-0.176;2023-05-19T19:57:37;102347.19;;;14.77
29701;BMP280;57917;51.380;-0.176;2023-05-19T20:04:02;102346.56;;;14.50
29701;BMP280;57917;51.380;-0.176;2023-05-19T20:10:13;102375.84;;;14.40
29701;BMP280;57917;51.380;-0.176;2023-05-19T20:16:36;102380.72;;;14.53
29701;BMP280;57917;51.380;-0.176;2023-05-19T20:22:26;102372.59;;;14.33
29701;BMP280;57917;51.380;-0.176;2023-05-19T20:28:28;102383.09;;;14.08
29701;BMP280;57917;51.380;-0.176;2023-05-19T20:50:14;102385.91;;;13.86
29701;BMP280;57917;51.380;-0.176;2023-05-19T21:04:14;102399.03;;;13.93
29701;BMP280;57917;51.380;-0.176;2023-05-19T21:16:32;102402.00;;;13.65
29701;BMP280;57917;51.380;-0.176;2023-05-19T21:22:25;102415.66;;;13.78
29701;BMP280;57917;51.380;-0.176;2023-05-19T21:28:18;102411.53;;;13.61
29701;BMP280;57917;51.380;-0.176;2023-05-19T21:34:15;102404.72;;;13.43
29701;BMP280;57917;51.380;-0.176;2023-05-19T21:40:07;102400.75;;;13.19
29701;BMP280;57917;51.380;-0.176;2023-05-19T21:45:57;102409.28;;;13.00
29701;BMP280;57917;51.380;-0.176;2023-05-19T21:51:44;102406.28;;;12.91
29701;BMP280;57917;51.380;-0.176;2023-05-19T21:57:31;102399.44;;;12.73
29701;BMP280;57917;51.380;-0.176;2023-05-19T22:03:21;102398.84;;;12.71
29701;BMP280;57917;51.380;-0.176;2023-05-19T22:09:08;102402.97;;;12.62
29701;BMP280;57917;51.380;-0.176;2023-05-19T22:14:57;102390.00;;;12.44
29701;BMP280;57917;51.380;-0.176;2023-05-19T22:20:44;102404.69;;;12.30
29701;BMP280;57917;51.380;-0.176;2023-05-19T22:26:34;102400.97;;;12.31
29701;BMP280;57917;51.380;-0.176;2023-05-19T22:32:21;102397.44;;;12.09
29701;BMP280;57917;51.380;-0.176;2023-05-19T22:38:08;102399.84;;;12.27
29701;BMP280;57917;51.380;-0.176;2023-05-19T22:43:56;102404.03;;;12.23
29701;BMP280;57917;51.380;-0.176;2023-05-19T22:49:48;102403.34;;;12.11
29701;BMP280;57917;51.380;-0.176;2023-05-19T22:55:35;102398.47;;;12.08
29701;BMP280;57917;51.380;-0.176;2023-05-19T23:01:23;102408.06;;;12.09
29701;BMP280;57917;51.380;-0.176;2023-05-19T23:07:10;102412.28;;;12.05
29701;BMP280;57917;51.380;-0.176;2023-05-19T23:13:04;102411.63;;;11.98
29701;BMP280;57917;51.380;-0.176;2023-05-19T23:18:57;102402.22;;;12.07
29701;BMP280;57917;51.380;-0.176;2023-05-19T23:24:46;102412.75;;;11.86
29701;BMP280;57917;51.380;-0.176;2023-05-19T23:30:37;102412.25;;;11.89
29701;BMP280;57917;51.380;-0.176;2023-05-19T23:36:25;102413.03;;;11.73
29701;BMP280;57917;51.380;-0.176;2023-05-19T23:42:15;102408.13;;;11.81
29701;BMP280;57917;51.380;-0.176;2023-05-19T23:48:04;102417.53;;;11.56
29701;BMP280;57917;51.380;-0.176;2023-05-19T23:53:57;102415.78;;;11.78
29701;BMP280;57917;51.380;-0.176;2023-05-19T23:59:44;102406.50;;;11.47
